sensor_id;sensor_type;location;lat;lon;timestamp;P1;durP1;ratioP1;P2;durP2;ratioP2
78581;SDS011;67878;46.242;5.974;2023-08-12T00:01:16;2.53;;;2.33;;
78581;SDS011;67878;46.242;5.974;2023-08-12T00:03:41;2.90;;;2.17;;
78581;SDS011;67878;46.242;5.974;2023-08-12T00:06:07;2.58;;;1.83;;
78581;SDS011;67878;46.242;5.974;2023-08-12T00:08:32;3.63;;;2.58;;
78581;SDS011;67878;46.242;5.974;2023-08-12T00:10:58;2.45;;;2.03;;
78581;SDS011;67878;46.242;5.974;2023-08-12T00:13:23;2.33;;;1.90;;
78581;SDS011;67878;46.242;5.974;2023-08-12T00:15:49;2.22;;;2.03;;
78581;SDS011;67878;46.242;5.974;2023-08-12T00:18:14;2.33;;;2.08;;
78581;SDS011;67878;46.242;5.974;2023-08-12T00:20:41;3.22;;;2.17;;
78581;SDS011;67878;46.242;5.974;2023-08-12T00:23:07;2.83;;;2.13;;
78581;SDS011;67878;46.242;5.974;2023-08-12T00:25:33;2.45;;;2.25;;
78581;SDS011;67878;46.242;5.974;2023-08-12T00:27:58;2.47;;;2.28;;
78581;SDS011;67878;46.242;5.974;2023-08-12T00:30:23;3.75;;;2.40;;
78581;SDS011;67878;46.242;5.974;2023-08-12T00:32:49;2.92;;;2.40;;
78581;SDS011;67878;46.242;5.974;2023-08-12T00:35:14;2.95;;;2.28;;
78581;SDS011;67878;46.242;5.974;2023-08-12T00:37:40;2.42;;;2.22;;
78581;SDS011;67878;46.242;5.974;2023-08-12T00:40:05;2.42;;;2.13;;
78581;SDS011;67878;46.242;5.974;2023-08-12T00:42:31;2.83;;;2.20;;
78581;SDS011;67878;46.242;5.974;2023-08-12T00:44:57;2.55;;;2.33;;
78581;SDS011;67878;46.242;5.974;2023-08-12T00:47:23;2.50;;;2.30;;
78581;SDS011;67878;46.242;5.974;2023-08-12T00:49:48;3.20;;;2.20;;
78581;SDS011;67878;46.242;5.974;2023-08-12T00:52:14;2.95;;;2.03;;
78581;SDS011;67878;46.242;5.974;2023-08-12T00:54:40;2.45;;;2.25;;
78581;SDS011;67878;46.242;5.974;2023-08-12T00:57:06;2.83;;;2.60;;
78581;SDS011;67878;46.242;5.974;2023-08-12T00:59:32;2.55;;;2.20;;
78581;SDS011;67878;46.242;5.974;2023-08-12T01:02:00;2.90;;;2.28;;
78581;SDS011;67878;46.242;5.974;2023-08-12T01:04:26;2.75;;;2.40;;
78581;SDS011;67878;46.242;5.974;2023-08-12T01:06:52;2.17;;;1.95;;
78581;SDS011;67878;46.242;5.974;2023-08-12T01:09:17;3.05;;;2.17;;
78581;SDS011;67878;46.242;5.974;2023-08-12T01:11:57;3.10;;;2.30;;
78581;SDS011;67878;46.242;5.974;2023-08-12T01:17:00;2.30;;;2.10;;
78581;SDS011;67878;46.242;5.974;2023-08-12T01:22:01;2.47;;;1.95;;
78581;SDS011;67878;46.242;5.974;2023-08-12T01:24:27;2.42;;;2.22;;
78581;SDS011;67878;46.242;5.974;2023-08-12T01:27:00;2.28;;;2.00;;
78581;SDS011;67878;46.242;5.974;2023-08-12T01:29:26;2.33;;;2.13;;
78581;SDS011;67878;46.242;5.974;2023-08-12T01:31:53;2.88;;;2.38;;
78581;SDS011;67878;46.242;5.974;2023-08-12T01:34:27;2.85;;;2.10;;
78581;SDS011;67878;46.242;5.974;2023-08-12T01:37:03;2.53;;;2.15;;
78581;SDS011;67878;46.242;5.974;2023-08-12T01:39:30;2.47;;;2.28;;
78581;SDS011;67878;46.242;5.974;2023-08-12T01:41:57;2.47;;;2.28;;
78581;SDS011;67878;46.242;5.974;2023-08-12T01:44:23;2.80;;;2.50;;
78581;SDS011;67878;46.242;5.974;2023-08-12T01:46:48;2.47;;;2.20;;
78581;SDS011;67878;46.242;5.974;2023-08-12T01:49:14;2.20;;;1.98;;
78581;SDS011;67878;46.242;5.974;2023-08-12T01:51:39;3.53;;;2.20;;
78581;SDS011;67878;46.242;5.974;2023-08-12T01:54:05;2.25;;;2.05;;
78581;SDS011;67878;46.242;5.974;2023-08-12T01:56:30;2.90;;;2.35;;
78581;SDS011;67878;46.242;5.974;2023-08-12T01:58:55;2.80;;;2.22;;
78581;SDS011;67878;46.242;5.974;2023-08-12T02:01:21;3.25;;;2.20;;
78581;SDS011;67878;46.242;5.974;2023-08-12T02:03:46;2.75;;;2.42;;
78581;SDS011;67878;46.242;5.974;2023-08-12T02:06:11;2.60;;;2.40;;
78581;SDS011;67878;46.242;5.974;2023-08-12T02:08:37;2.63;;;2.22;;
78581;SDS011;67878;46.242;5.974;2023-08-12T02:11:02;3.13;;;2.13;;
78581;SDS011;67878;46.242;5.974;2023-08-12T02:13:28;3.17;;;2.40;;
78581;SDS011;67878;46.242;5.974;2023-08-12T02:15:53;2.50;;;2.00;;
78581;SDS011;67878;46.242;5.974;2023-08-12T02:18:18;2.65;;;2.17;;
78581;SDS011;67878;46.242;5.974;2023-08-12T02:20:46;2.88;;;2.10;;
78581;SDS011;67878;46.242;5.974;2023-08-12T02:23:12;2.30;;;2.10;;
78581;SDS011;67878;46.242;5.974;2023-08-12T02:25:37;2.72;;;2.10;;
78581;SDS011;67878;46.242;5.974;2023-08-12T02:28:02;2.28;;;2.08;;
78581;SDS011;67878;46.242;5.974;2023-08-12T02:30:28;2.85;;;2.10;;
78581;SDS011;67878;46.242;5.974;2023-08-12T02:32:54;2.38;;;2.13;;
78581;SDS011;67878;46.242;5.974;2023-08-12T02:35:20;2.55;;;2.22;;
78581;SDS011;67878;46.242;5.974;2023-08-12T02:37:45;2.42;;;2.22;;
78581;SDS011;67878;46.242;5.974;2023-08-12T02:40:13;3.17;;;2.53;;
78581;SDS011;67878;46.242;5.974;2023-08-12T02:42:38;2.80;;;2.25;;
78581;SDS011;67878;46.242;5.974;2023-08-12T02:45:04;2.35;;;2.15;;
78581;SDS011;67878;46.242;5.974;2023-08-12T02:47:30;2.55;;;2.10;;
78581;SDS011;67878;46.242;5.974;2023-08-12T02:49:55;2.70;;;2.20;;
78581;SDS011;67878;46.242;5.974;2023-08-12T02:52:20;2.33;;;2.13;;
78581;SDS011;67878;46.242;5.974;2023-08-12T02:54:46;2.60;;;2.40;;
78581;SDS011;67878;46.242;5.974;2023-08-12T02:57:11;2.30;;;2.10;;
78581;SDS011;67878;46.242;5.974;2023-08-12T02:59:37;2.78;;;1.90;;
78581;SDS011;67878;46.242;5.974;2023-08-12T03:02:02;2.60;;;2.05;;
78581;SDS011;67878;46.242;5.974;2023-08-12T03:04:28;2.47;;;2.13;;
78581;SDS011;67878;46.242;5.974;2023-08-12T03:06:53;3.15;;;2.03;;
78581;SDS011;67878;46.242;5.974;2023-08-12T03:09:19;2.10;;;1.90;;
78581;SDS011;67878;46.242;5.974;2023-08-12T03:11:45;2.60;;;2.40;;
78581;SDS011;67878;46.242;5.974;2023-08-12T03:14:10;2.10;;;1.90;;
78581;SDS011;67878;46.242;5.974;2023-08-12T03:16:36;3.75;;;2.05;;
78581;SDS011;67878;46.242;5.974;2023-08-12T03:19:01;2.00;;;1.80;;
78581;SDS011;67878;46.242;5.974;2023-08-12T03:21:27;3.00;;;2.30;;
78581;SDS011;67878;46.242;5.974;2023-08-12T03:23:53;2.30;;;2.10;;
78581;SDS011;67878;46.242;5.974;2023-08-12T03:26:18;2.70;;;1.92;;
78581;SDS011;67878;46.242;5.974;2023-08-12T03:28:44;2.80;;;2.17;;
78581;SDS011;67878;46.242;5.974;2023-08-12T03:31:09;2.05;;;1.85;;
78581;SDS011;67878;46.242;5.974;2023-08-12T03:33:34;2.90;;;1.90;;
78581;SDS011;67878;46.242;5.974;2023-08-12T03:36:00;2.30;;;2.00;;
78581;SDS011;67878;46.242;5.974;2023-08-12T03:38:25;2.22;;;2.03;;
78581;SDS011;67878;46.242;5.974;2023-08-12T03:40:51;3.22;;;2.53;;
78581;SDS011;67878;46.242;5.974;2023-08-12T03:43:16;2.58;;;2.08;;
78581;SDS011;67878;46.242;5.974;2023-08-12T03:45:42;3.20;;;2.22;;
78581;SDS011;67878;46.242;5.974;2023-08-12T03:48:08;2.35;;;2.03;;
78581;SDS011;67878;46.242;5.974;2023-08-12T03:50:35;2.50;;;1.90;;
78581;SDS011;67878;46.242;5.974;2023-08-12T03:53:01;2.50;;;2.30;;
78581;SDS011;67878;46.242;5.974;2023-08-12T03:55:27;2.08;;;1.80;;
78581;SDS011;67878;46.242;5.974;2023-08-12T03:57:52;3.28;;;2.05;;
78581;SDS011;67878;46.242;5.974;2023-08-12T04:00:17;2.15;;;1.80;;
78581;SDS011;67878;46.242;5.974;2023-08-12T04:02:43;2.35;;;2.10;;
78581;SDS011;67878;46.242;5.974;2023-08-12T04:05:08;2.80;;;2.25;;
78581;SDS011;67878;46.242;5.974;2023-08-12T04:07:35;1.90;;;1.70;;
78581;SDS011;67878;46.242;5.974;2023-08-12T04:10:01;2.65;;;2.22;;
78581;SDS011;67878;46.242;5.974;2023-08-12T04:12:27;2.25;;;2.00;;
78581;SDS011;67878;46.242;5.974;2023-08-12T04:14:53;2.30;;;1.85;;
78581;SDS011;67878;46.242;5.974;2023-08-12T04:17:18;2.10;;;1.90;;
78581;SDS011;67878;46.242;5.974;2023-08-12T04:19:44;2.63;;;2.10;;
78581;SDS011;67878;46.242;5.974;2023-08-12T04:22:09;2.53;;;2.17;;
78581;SDS011;67878;46.242;5.974;2023-08-12T04:24:34;2.30;;;2.00;;
78581;SDS011;67878;46.242;5.974;2023-08-12T04:27:00;2.33;;;2.13;;
78581;SDS011;67878;46.242;5.974;2023-08-12T04:29:25;2.72;;;2.20;;
78581;SDS011;67878;46.242;5.974;2023-08-12T04:31:51;2.72;;;1.95;;
78581;SDS011;67878;46.242;5.974;2023-08-12T04:34:17;2.92;;;2.10;;
78581;SDS011;67878;46.242;5.974;2023-08-12T04:36:43;2.08;;;1.88;;
78581;SDS011;67878;46.242;5.974;2023-08-12T04:39:08;2.78;;;2.00;;
78581;SDS011;67878;46.242;5.974;2023-08-12T04:41:34;2.58;;;2.13;;
78581;SDS011;67878;46.242;5.974;2023-08-12T04:43:59;3.00;;;1.90;;
78581;SDS011;67878;46.242;5.974;2023-08-12T04:46:24;3.10;;;2.08;;
78581;SDS011;67878;46.242;5.974;2023-08-12T04:48:50;2.88;;;1.85;;
78581;SDS011;67878;46.242;5.974;2023-08-12T04:51:15;2.20;;;2.00;;
78581;SDS011;67878;46.242;5.974;2023-08-12T04:53:40;2.50;;;2.30;;
78581;SDS011;67878;46.242;5.974;2023-08-12T04:56:06;2.58;;;1.98;;
78581;SDS011;67878;46.242;5.974;2023-08-12T04:58:32;2.88;;;1.98;;
78581;SDS011;67878;46.242;5.974;2023-08-12T05:00:57;2.30;;;2.10;;
78581;SDS011;67878;46.242;5.974;2023-08-12T05:03:23;2.42;;;1.92;;
78581;SDS011;67878;46.242;5.974;2023-08-12T05:05:49;2.30;;;1.70;;
78581;SDS011;67878;46.242;5.974;2023-08-12T05:08:15;1.98;;;1.63;;
78581;SDS011;67878;46.242;5.974;2023-08-12T05:10:41;2.10;;;1.75;;
78581;SDS011;67878;46.242;5.974;2023-08-12T05:13:06;2.15;;;1.90;;
78581;SDS011;67878;46.242;5.974;2023-08-12T05:15:32;2.03;;;1.83;;
78581;SDS011;67878;46.242;5.974;2023-08-12T05:17:57;2.03;;;1.77;;
78581;SDS011;67878;46.242;5.974;2023-08-12T05:20:23;2.00;;;1.80;;
78581;SDS011;67878;46.242;5.974;2023-08-12T05:22:48;2.65;;;2.05;;
78581;SDS011;67878;46.242;5.974;2023-08-12T05:25:13;1.88;;;1.75;;
78581;SDS011;67878;46.242;5.974;2023-08-12T05:27:39;2.33;;;1.83;;
78581;SDS011;67878;46.242;5.974;2023-08-12T05:30:04;2.30;;;2.10;;
78581;SDS011;67878;46.242;5.974;2023-08-12T05:32:30;2.60;;;1.92;;
78581;SDS011;67878;46.242;5.974;2023-08-12T05:34:55;3.30;;;2.10;;
78581;SDS011;67878;46.242;5.974;2023-08-12T05:37:21;2.55;;;2.15;;
78581;SDS011;67878;46.242;5.974;2023-08-12T05:39:46;2.35;;;1.80;;
78581;SDS011;67878;46.242;5.974;2023-08-12T05:42:12;2.60;;;2.17;;
78581;SDS011;67878;46.242;5.974;2023-08-12T05:44:37;2.15;;;1.83;;
78581;SDS011;67878;46.242;5.974;2023-08-12T05:47:03;2.40;;;2.05;;
78581;SDS011;67878;46.242;5.974;2023-08-12T05:49:28;2.85;;;2.40;;
78581;SDS011;67878;46.242;5.974;2023-08-12T05:51:53;4.28;;;2.22;;
78581;SDS011;67878;46.242;5.974;2023-08-12T05:54:19;2.90;;;2.33;;
78581;SDS011;67878;46.242;5.974;2023-08-12T05:56:45;4.18;;;2.42;;
78581;SDS011;67878;46.242;5.974;2023-08-12T05:59:10;2.97;;;2.33;;
78581;SDS011;67878;46.242;5.974;2023-08-12T06:01:37;4.00;;;2.30;;
78581;SDS011;67878;46.242;5.974;2023-08-12T06:04:02;3.85;;;2.60;;
78581;SDS011;67878;46.242;5.974;2023-08-12T06:06:28;3.80;;;2.30;;
78581;SDS011;67878;46.242;5.974;2023-08-12T06:08:53;3.05;;;2.55;;
78581;SDS011;67878;46.242;5.974;2023-08-12T06:11:19;3.42;;;2.20;;
78581;SDS011;67878;46.242;5.974;2023-08-12T06:13:44;5.15;;;2.50;;
78581;SDS011;67878;46.242;5.974;2023-08-12T06:16:10;3.83;;;2.58;;
78581;SDS011;67878;46.242;5.974;2023-08-12T06:18:35;3.80;;;2.33;;
78581;SDS011;67878;46.242;5.974;2023-08-12T06:21:00;3.08;;;2.60;;
78581;SDS011;67878;46.242;5.974;2023-08-12T06:23:26;5.35;;;2.25;;
78581;SDS011;67878;46.242;5.974;2023-08-12T06:25:51;4.07;;;2.55;;
78581;SDS011;67878;46.242;5.974;2023-08-12T06:28:17;2.33;;;2.10;;
78581;SDS011;67878;46.242;5.974;2023-08-12T06:30:44;3.92;;;2.38;;
78581;SDS011;67878;46.242;5.974;2023-08-12T06:33:10;3.72;;;2.55;;
78581;SDS011;67878;46.242;5.974;2023-08-12T06:35:36;5.43;;;2.55;;
78581;SDS011;67878;46.242;5.974;2023-08-12T06:38:01;2.70;;;2.50;;
78581;SDS011;67878;46.242;5.974;2023-08-12T06:40:27;3.97;;;2.80;;
78581;SDS011;67878;46.242;5.974;2023-08-12T06:42:52;4.30;;;2.58;;
78581;SDS011;67878;46.242;5.974;2023-08-12T06:45:18;2.90;;;2.60;;
78581;SDS011;67878;46.242;5.974;2023-08-12T06:47:44;4.63;;;2.50;;
78581;SDS011;67878;46.242;5.974;2023-08-12T06:50:09;3.78;;;2.60;;
78581;SDS011;67878;46.242;5.974;2023-08-12T06:52:35;4.38;;;2.38;;
78581;SDS011;67878;46.242;5.974;2023-08-12T06:55:01;2.63;;;2.38;;
78581;SDS011;67878;46.242;5.974;2023-08-12T06:57:26;3.38;;;2.83;;
78581;SDS011;67878;46.242;5.974;2023-08-12T06:59:52;4.40;;;2.45;;
78581;SDS011;67878;46.242;5.974;2023-08-12T07:02:17;2.45;;;2.17;;
78581;SDS011;67878;46.242;5.974;2023-08-12T07:04:42;3.75;;;2.75;;
78581;SDS011;67878;46.242;5.974;2023-08-12T07:07:08;3.58;;;2.60;;
78581;SDS011;67878;46.242;5.974;2023-08-12T07:09:33;4.78;;;2.67;;
78581;SDS011;67878;46.242;5.974;2023-08-12T07:11:59;3.10;;;2.50;;
78581;SDS011;67878;46.242;5.974;2023-08-12T07:14:26;3.65;;;2.25;;
78581;SDS011;67878;46.242;5.974;2023-08-12T07:16:53;2.80;;;2.15;;
78581;SDS011;67878;46.242;5.974;2023-08-12T07:19:18;3.47;;;2.70;;
78581;SDS011;67878;46.242;5.974;2023-08-12T07:21:44;5.85;;;2.80;;
78581;SDS011;67878;46.242;5.974;2023-08-12T07:24:09;6.22;;;2.58;;
78581;SDS011;67878;46.242;5.974;2023-08-12T07:26:34;2.83;;;2.60;;
78581;SDS011;67878;46.242;5.974;2023-08-12T07:29:00;4.45;;;2.40;;
78581;SDS011;67878;46.242;5.974;2023-08-12T07:31:25;3.97;;;2.40;;
78581;SDS011;67878;46.242;5.974;2023-08-12T07:33:51;3.70;;;2.78;;
78581;SDS011;67878;46.242;5.974;2023-08-12T07:36:16;4.47;;;2.72;;
78581;SDS011;67878;46.242;5.974;2023-08-12T07:38:41;3.00;;;2.63;;
78581;SDS011;67878;46.242;5.974;2023-08-12T07:41:07;3.28;;;2.28;;
78581;SDS011;67878;46.242;5.974;2023-08-12T07:43:32;4.75;;;2.58;;
78581;SDS011;67878;46.242;5.974;2023-08-12T07:45:58;3.03;;;2.38;;
78581;SDS011;67878;46.242;5.974;2023-08-12T07:48:23;3.15;;;2.40;;
78581;SDS011;67878;46.242;5.974;2023-08-12T07:50:58;3.65;;;2.95;;
78581;SDS011;67878;46.242;5.974;2023-08-12T07:53:24;4.10;;;2.78;;
78581;SDS011;67878;46.242;5.974;2023-08-12T07:55:50;5.85;;;2.65;;
78581;SDS011;67878;46.242;5.974;2023-08-12T07:58:16;3.17;;;2.60;;
78581;SDS011;67878;46.242;5.974;2023-08-12T08:00:41;3.55;;;2.53;;
78581;SDS011;67878;46.242;5.974;2023-08-12T08:03:07;5.90;;;2.60;;
78581;SDS011;67878;46.242;5.974;2023-08-12T08:05:32;4.95;;;2.63;;
78581;SDS011;67878;46.242;5.974;2023-08-12T08:07:57;3.75;;;2.63;;
78581;SDS011;67878;46.242;5.974;2023-08-12T08:10:23;3.58;;;2.70;;
78581;SDS011;67878;46.242;5.974;2023-08-12T08:12:48;4.18;;;3.08;;
78581;SDS011;67878;46.242;5.974;2023-08-12T08:15:14;3.45;;;2.60;;
78581;SDS011;67878;46.242;5.974;2023-08-12T08:17:39;4.35;;;2.55;;
78581;SDS011;67878;46.242;5.974;2023-08-12T08:20:05;4.20;;;2.50;;
78581;SDS011;67878;46.242;5.974;2023-08-12T08:22:31;2.97;;;2.60;;
78581;SDS011;67878;46.242;5.974;2023-08-12T08:39:39;2.42;;;2.15;;
78581;SDS011;67878;46.242;5.974;2023-08-12T08:42:05;4.13;;;2.80;;
78581;SDS011;67878;46.242;5.974;2023-08-12T08:44:31;4.18;;;2.75;;
78581;SDS011;67878;46.242;5.974;2023-08-12T08:46:58;5.63;;;2.75;;
78581;SDS011;67878;46.242;5.974;2023-08-12T08:49:24;10.23;;;3.15;;
78581;SDS011;67878;46.242;5.974;2023-08-12T08:51:50;4.65;;;2.97;;
78581;SDS011;67878;46.242;5.974;2023-08-12T08:54:16;6.57;;;3.00;;
78581;SDS011;67878;46.242;5.974;2023-08-12T08:56:41;5.53;;;3.20;;
78581;SDS011;67878;46.242;5.974;2023-08-12T08:59:10;3.92;;;2.92;;
78581;SDS011;67878;46.242;5.974;2023-08-12T09:01:36;3.53;;;3.03;;
78581;SDS011;67878;46.242;5.974;2023-08-12T09:04:03;4.90;;;3.33;;
78581;SDS011;67878;46.242;5.974;2023-08-12T09:06:29;5.30;;;2.78;;
78581;SDS011;67878;46.242;5.974;2023-08-12T09:08:55;4.60;;;3.00;;
78581;SDS011;67878;46.242;5.974;2023-08-12T09:11:21;5.43;;;3.03;;
78581;SDS011;67878;46.242;5.974;2023-08-12T09:13:46;5.30;;;3.00;;
78581;SDS011;67878;46.242;5.974;2023-08-12T09:16:20;4.43;;;2.90;;
78581;SDS011;67878;46.242;5.974;2023-08-12T09:18:49;4.80;;;3.17;;
78581;SDS011;67878;46.242;5.974;2023-08-12T09:21:26;4.88;;;3.20;;
78581;SDS011;67878;46.242;5.974;2023-08-12T09:23:55;4.72;;;3.15;;
78581;SDS011;67878;46.242;5.974;2023-08-12T09:26:36;5.72;;;3.28;;
78581;SDS011;67878;46.242;5.974;2023-08-12T09:29:04;3.42;;;3.13;;
78581;SDS011;67878;46.242;5.974;2023-08-12T09:31:33;5.95;;;3.40;;
78581;SDS011;67878;46.242;5.974;2023-08-12T09:34:04;3.60;;;2.80;;
78581;SDS011;67878;46.242;5.974;2023-08-12T09:36:40;5.75;;;3.25;;
78581;SDS011;67878;46.242;5.974;2023-08-12T09:39:12;6.55;;;3.10;;
78581;SDS011;67878;46.242;5.974;2023-08-12T09:41:39;5.47;;;3.30;;
78581;SDS011;67878;46.242;5.974;2023-08-12T09:44:05;4.20;;;2.97;;
78581;SDS011;67878;46.242;5.974;2023-08-12T09:46:32;5.82;;;2.97;;
78581;SDS011;67878;46.242;5.974;2023-08-12T09:48:58;6.45;;;3.40;;
78581;SDS011;67878;46.242;5.974;2023-08-12T09:51:24;4.85;;;3.13;;
78581;SDS011;67878;46.242;5.974;2023-08-12T09:53:49;3.63;;;2.80;;
78581;SDS011;67878;46.242;5.974;2023-08-12T09:56:17;5.95;;;3.25;;
78581;SDS011;67878;46.242;5.974;2023-08-12T09:58:43;4.70;;;3.20;;
78581;SDS011;67878;46.242;5.974;2023-08-12T10:01:12;3.95;;;3.35;;
78581;SDS011;67878;46.242;5.974;2023-08-12T10:03:38;3.60;;;3.20;;
78581;SDS011;67878;46.242;5.974;2023-08-12T10:06:04;5.07;;;3.20;;
78581;SDS011;67878;46.242;5.974;2023-08-12T10:08:30;4.70;;;3.67;;
78581;SDS011;67878;46.242;5.974;2023-08-12T10:10:56;4.55;;;3.30;;
78581;SDS011;67878;46.242;5.974;2023-08-12T10:13:22;3.90;;;3.22;;
78581;SDS011;67878;46.242;5.974;2023-08-12T10:15:47;5.32;;;3.38;;
78581;SDS011;67878;46.242;5.974;2023-08-12T10:18:13;5.18;;;3.20;;
78581;SDS011;67878;46.242;5.974;2023-08-12T10:20:39;5.03;;;3.80;;
78581;SDS011;67878;46.242;5.974;2023-08-12T10:23:05;4.10;;;3.03;;
78581;SDS011;67878;46.242;5.974;2023-08-12T10:25:32;5.65;;;3.67;;
78581;SDS011;67878;46.242;5.974;2023-08-12T10:28:01;4.38;;;3.55;;
78581;SDS011;67878;46.242;5.974;2023-08-12T10:30:29;5.93;;;3.25;;
78581;SDS011;67878;46.242;5.974;2023-08-12T10:32:56;4.30;;;3.40;;
78581;SDS011;67878;46.242;5.974;2023-08-12T10:35:23;4.47;;;3.65;;
78581;SDS011;67878;46.242;5.974;2023-08-12T10:37:49;4.28;;;3.40;;
78581;SDS011;67878;46.242;5.974;2023-08-12T10:40:22;3.70;;;3.13;;
78581;SDS011;67878;46.242;5.974;2023-08-12T10:42:48;5.07;;;3.13;;
78581;SDS011;67878;46.242;5.974;2023-08-12T10:45:16;5.78;;;3.35;;
78581;SDS011;67878;46.242;5.974;2023-08-12T10:47:52;4.40;;;3.60;;
78581;SDS011;67878;46.242;5.974;2023-08-12T10:50:27;4.78;;;3.28;;
78581;SDS011;67878;46.242;5.974;2023-08-12T10:52:56;4.07;;;3.50;;
78581;SDS011;67878;46.242;5.974;2023-08-12T10:55:29;4.68;;;3.22;;
78581;SDS011;67878;46.242;5.974;2023-08-12T10:58:13;3.75;;;3.30;;
78581;SDS011;67878;46.242;5.974;2023-08-12T11:01:32;3.90;;;3.25;;
78581;SDS011;67878;46.242;5.974;2023-08-12T11:04:16;3.55;;;3.25;;
78581;SDS011;67878;46.242;5.974;2023-08-12T11:07:11;5.63;;;3.38;;
78581;SDS011;67878;46.242;5.974;2023-08-12T11:09:44;4.28;;;3.20;;
78581;SDS011;67878;46.242;5.974;2023-08-12T11:12:11;4.30;;;3.35;;
78581;SDS011;67878;46.242;5.974;2023-08-12T11:14:49;5.63;;;3.50;;
78581;SDS011;67878;46.242;5.974;2023-08-12T11:17:18;4.20;;;3.30;;
78581;SDS011;67878;46.242;5.974;2023-08-12T11:19:44;6.75;;;3.47;;
78581;SDS011;67878;46.242;5.974;2023-08-12T11:22:09;3.70;;;3.35;;
78581;SDS011;67878;46.242;5.974;2023-08-12T11:24:38;4.88;;;3.65;;
78581;SDS011;67878;46.242;5.974;2023-08-12T11:27:05;6.32;;;3.53;;
78581;SDS011;67878;46.242;5.974;2023-08-12T11:29:34;4.40;;;3.60;;
78581;SDS011;67878;46.242;5.974;2023-08-12T11:31:59;4.78;;;3.38;;
78581;SDS011;67878;46.242;5.974;2023-08-12T11:34:25;6.45;;;3.50;;
78581;SDS011;67878;46.242;5.974;2023-08-12T11:36:51;6.10;;;3.50;;
78581;SDS011;67878;46.242;5.974;2023-08-12T11:39:17;4.25;;;3.38;;
78581;SDS011;67878;46.242;5.974;2023-08-12T11:41:42;4.63;;;3.28;;
78581;SDS011;67878;46.242;5.974;2023-08-12T11:44:11;4.80;;;3.17;;
78581;SDS011;67878;46.242;5.974;2023-08-12T11:46:40;4.43;;;2.95;;
78581;SDS011;67878;46.242;5.974;2023-08-12T11:49:05;4.25;;;2.85;;
78581;SDS011;67878;46.242;5.974;2023-08-12T11:51:31;5.20;;;3.10;;
78581;SDS011;67878;46.242;5.974;2023-08-12T11:53:56;4.75;;;3.20;;
78581;SDS011;67878;46.242;5.974;2023-08-12T11:56:22;3.75;;;3.03;;
78581;SDS011;67878;46.242;5.974;2023-08-12T11:58:51;5.60;;;3.55;;
78581;SDS011;67878;46.242;5.974;2023-08-12T12:01:18;6.70;;;3.13;;
78581;SDS011;67878;46.242;5.974;2023-08-12T12:03:43;5.70;;;3.25;;
78581;SDS011;67878;46.242;5.974;2023-08-12T12:06:09;5.88;;;3.40;;
78581;SDS011;67878;46.242;5.974;2023-08-12T12:08:34;5.53;;;3.40;;
78581;SDS011;67878;46.242;5.974;2023-08-12T12:11:03;6.22;;;3.50;;
78581;SDS011;67878;46.242;5.974;2023-08-12T12:13:30;4.50;;;3.30;;
78581;SDS011;67878;46.242;5.974;2023-08-12T12:15:55;4.82;;;3.33;;
78581;SDS011;67878;46.242;5.974;2023-08-12T12:18:20;6.60;;;3.58;;
78581;SDS011;67878;46.242;5.974;2023-08-12T12:20:56;4.93;;;3.58;;
78581;SDS011;67878;46.242;5.974;2023-08-12T12:23:27;5.22;;;3.10;;
78581;SDS011;67878;46.242;5.974;2023-08-12T12:26:01;5.30;;;3.67;;
78581;SDS011;67878;46.242;5.974;2023-08-12T12:28:27;5.85;;;3.40;;
78581;SDS011;67878;46.242;5.974;2023-08-12T12:30:53;5.25;;;3.58;;
78581;SDS011;67878;46.242;5.974;2023-08-12T12:33:18;4.40;;;3.20;;
78581;SDS011;67878;46.242;5.974;2023-08-12T12:35:44;4.13;;;3.20;;
78581;SDS011;67878;46.242;5.974;2023-08-12T12:38:09;6.95;;;3.40;;
78581;SDS011;67878;46.242;5.974;2023-08-12T12:40:35;4.55;;;3.60;;
78581;SDS011;67878;46.242;5.974;2023-08-12T12:43:00;5.40;;;3.78;;
78581;SDS011;67878;46.242;5.974;2023-08-12T12:45:27;6.25;;;3.35;;
78581;SDS011;67878;46.242;5.974;2023-08-12T12:47:53;4.30;;;3.22;;
78581;SDS011;67878;46.242;5.974;2023-08-12T12:50:18;6.50;;;3.22;;
78581;SDS011;67878;46.242;5.974;2023-08-12T12:52:44;5.22;;;3.10;;
78581;SDS011;67878;46.242;5.974;2023-08-12T12:55:09;4.05;;;3.00;;
78581;SDS011;67878;46.242;5.974;2023-08-12T12:57:34;4.78;;;3.55;;
78581;SDS011;67878;46.242;5.974;2023-08-12T13:00:00;4.35;;;3.30;;
78581;SDS011;67878;46.242;5.974;2023-08-12T13:02:25;5.38;;;3.05;;
78581;SDS011;67878;46.242;5.974;2023-08-12T13:04:52;3.88;;;3.33;;
78581;SDS011;67878;46.242;5.974;2023-08-12T13:07:17;4.10;;;3.70;;
78581;SDS011;67878;46.242;5.974;2023-08-12T13:09:43;4.72;;;3.08;;
78581;SDS011;67878;46.242;5.974;2023-08-12T13:12:09;5.47;;;3.15;;
78581;SDS011;67878;46.242;5.974;2023-08-12T13:14:34;6.80;;;3.03;;
78581;SDS011;67878;46.242;5.974;2023-08-12T13:17:00;4.50;;;3.47;;
78581;SDS011;67878;46.242;5.974;2023-08-12T13:19:25;3.55;;;3.15;;
78581;SDS011;67878;46.242;5.974;2023-08-12T13:21:51;3.58;;;2.83;;
78581;SDS011;67878;46.242;5.974;2023-08-12T13:24:16;5.40;;;3.80;;
78581;SDS011;67878;46.242;5.974;2023-08-12T13:26:41;5.25;;;3.50;;
78581;SDS011;67878;46.242;5.974;2023-08-12T13:29:07;4.47;;;3.50;;
78581;SDS011;67878;46.242;5.974;2023-08-12T13:31:32;4.85;;;3.00;;
78581;SDS011;67878;46.242;5.974;2023-08-12T13:33:58;5.35;;;3.55;;
78581;SDS011;67878;46.242;5.974;2023-08-12T13:36:23;3.63;;;3.08;;
78581;SDS011;67878;46.242;5.974;2023-08-12T13:38:49;5.38;;;3.75;;
78581;SDS011;67878;46.242;5.974;2023-08-12T13:41:14;4.88;;;3.20;;
78581;SDS011;67878;46.242;5.974;2023-08-12T13:43:40;4.82;;;3.55;;
78581;SDS011;67878;46.242;5.974;2023-08-12T13:46:05;4.28;;;3.13;;
78581;SDS011;67878;46.242;5.974;2023-08-12T13:48:31;4.50;;;3.30;;
78581;SDS011;67878;46.242;5.974;2023-08-12T13:50:56;4.13;;;2.90;;
78581;SDS011;67878;46.242;5.974;2023-08-12T13:53:21;3.55;;;3.20;;
78581;SDS011;67878;46.242;5.974;2023-08-12T13:55:48;5.43;;;3.50;;
78581;SDS011;67878;46.242;5.974;2023-08-12T13:58:14;3.47;;;3.17;;
78581;SDS011;67878;46.242;5.974;2023-08-12T14:00:39;5.07;;;3.20;;
78581;SDS011;67878;46.242;5.974;2023-08-12T14:03:05;5.00;;;3.35;;
78581;SDS011;67878;46.242;5.974;2023-08-12T14:05:30;3.50;;;3.20;;
78581;SDS011;67878;46.242;5.974;2023-08-12T14:07:55;5.60;;;3.17;;
78581;SDS011;67878;46.242;5.974;2023-08-12T14:10:21;4.38;;;3.17;;
78581;SDS011;67878;46.242;5.974;2023-08-12T14:12:46;5.00;;;3.28;;
78581;SDS011;67878;46.242;5.974;2023-08-12T14:15:13;4.28;;;3.47;;
78581;SDS011;67878;46.242;5.974;2023-08-12T14:17:39;5.57;;;3.22;;
78581;SDS011;67878;46.242;5.974;2023-08-12T14:20:05;4.38;;;3.55;;
78581;SDS011;67878;46.242;5.974;2023-08-12T14:22:33;4.88;;;3.40;;
78581;SDS011;67878;46.242;5.974;2023-08-12T14:24:59;6.05;;;3.67;;
78581;SDS011;67878;46.242;5.974;2023-08-12T14:27:24;3.55;;;3.25;;
78581;SDS011;67878;46.242;5.974;2023-08-12T14:29:50;5.75;;;3.60;;
78581;SDS011;67878;46.242;5.974;2023-08-12T14:32:16;4.75;;;3.60;;
78581;SDS011;67878;46.242;5.974;2023-08-12T14:34:43;4.22;;;3.20;;
78581;SDS011;67878;46.242;5.974;2023-08-12T14:37:11;4.55;;;3.70;;
78581;SDS011;67878;46.242;5.974;2023-08-12T14:39:36;5.78;;;3.38;;
78581;SDS011;67878;46.242;5.974;2023-08-12T14:42:02;4.43;;;3.60;;
78581;SDS011;67878;46.242;5.974;2023-08-12T14:44:29;4.60;;;3.20;;
78581;SDS011;67878;46.242;5.974;2023-08-12T14:46:55;4.95;;;3.38;;
78581;SDS011;67878;46.242;5.974;2023-08-12T14:49:21;4.45;;;3.00;;
78581;SDS011;67878;46.242;5.974;2023-08-12T14:51:46;3.80;;;3.03;;
78581;SDS011;67878;46.242;5.974;2023-08-12T14:54:12;5.07;;;3.53;;
78581;SDS011;67878;46.242;5.974;2023-08-12T14:56:37;4.38;;;3.65;;
78581;SDS011;67878;46.242;5.974;2023-08-12T14:59:02;3.65;;;3.35;;
78581;SDS011;67878;46.242;5.974;2023-08-12T15:01:29;5.13;;;3.33;;
78581;SDS011;67878;46.242;5.974;2023-08-12T15:03:54;4.22;;;3.30;;